sensor_id;sensor_type;location;lat;lon;timestamp;P1;durP1;ratioP1;P2;durP2;ratioP2
73859;SDS011;62197;51.632;13.700;2023-05-29T00:00:04;9.43;;;5.15;;
73859;SDS011;62197;51.632;13.700;2023-05-29T00:02:33;11.65;;;5.22;;
73859;SDS011;62197;51.632;13.700;2023-05-29T00:04:59;12.15;;;4.90;;
73859;SDS011;62197;51.632;13.700;2023-05-29T00:07:28;7.25;;;5.05;;
73859;SDS011;62197;51.632;13.700;2023-05-29T00:09:57;13.30;;;6.00;;
73859;SDS011;62197;51.632;13.700;2023-05-29T00:14:48;9.37;;;5.13;;
73859;SDS011;62197;51.632;13.700;2023-05-29T00:19:40;4.93;;;2.88;;
73859;SDS011;62197;51.632;13.700;2023-05-29T00:24:31;4.43;;;2.30;;
73859;SDS011;62197;51.632;13.700;2023-05-29T00:29:21;6.47;;;2.97;;
73859;SDS011;62197;51.632;13.700;2023-05-29T00:34:12;6.85;;;3.08;;
73859;SDS011;62197;51.632;13.700;2023-05-29T00:39:03;3.88;;;2.75;;
73859;SDS011;62197;51.632;13.700;2023-05-29T00:43:53;5.03;;;2.93;;
73859;SDS011;62197;51.632;13.700;2023-05-29T00:46:20;5.90;;;3.55;;
73859;SDS011;62197;51.632;13.700;2023-05-29T00:51:10;8.17;;;3.43;;
73859;SDS011;62197;51.632;13.700;2023-05-29T00:53:37;5.97;;;3.10;;
73859;SDS011;62197;51.632;13.700;2023-05-29T00:56:05;5.43;;;2.95;;
73859;SDS011;62197;51.632;13.700;2023-05-29T00:58:32;5.32;;;3.10;;
73859;SDS011;62197;51.632;13.700;2023-05-29T01:03:23;6.20;;;3.08;;
73859;SDS011;62197;51.632;13.700;2023-05-29T01:08:14;6.05;;;2.80;;
73859;SDS011;62197;51.632;13.700;2023-05-29T01:13:19;6.03;;;2.95;;
73859;SDS011;62197;51.632;13.700;2023-05-29T01:15:57;4.80;;;3.25;;
73859;SDS011;62197;51.632;13.700;2023-05-29T01:18:30;6.95;;;3.08;;
73859;SDS011;62197;51.632;13.700;2023-05-29T01:21:13;6.03;;;3.05;;
73859;SDS011;62197;51.632;13.700;2023-05-29T01:29:13;5.72;;;2.95;;
73859;SDS011;62197;51.632;13.700;2023-05-29T01:31:40;4.65;;;3.20;;
73859;SDS011;62197;51.632;13.700;2023-05-29T01:34:07;6.88;;;2.95;;
73859;SDS011;62197;51.632;13.700;2023-05-29T01:38:58;5.70;;;2.90;;
73859;SDS011;62197;51.632;13.700;2023-05-29T01:41:24;4.72;;;2.85;;
73859;SDS011;62197;51.632;13.700;2023-05-29T01:43:51;5.18;;;2.60;;
73859;SDS011;62197;51.632;13.700;2023-05-29T01:46:17;5.28;;;3.17;;
73859;SDS011;62197;51.632;13.700;2023-05-29T01:48:44;6.15;;;4.20;;
73859;SDS011;62197;51.632;13.700;2023-05-29T01:51:10;4.90;;;3.17;;
73859;SDS011;62197;51.632;13.700;2023-05-29T01:53:37;14.15;;;2.90;;
73859;SDS011;62197;51.632;13.700;2023-05-29T01:56:04;5.57;;;2.83;;
73859;SDS011;62197;51.632;13.700;2023-05-29T01:58:30;7.45;;;3.28;;
73859;SDS011;62197;51.632;13.700;2023-05-29T02:03:22;5.38;;;3.40;;
73859;SDS011;62197;51.632;13.700;2023-05-29T02:05:48;5.43;;;2.60;;
73859;SDS011;62197;51.632;13.700;2023-05-29T02:10:39;4.80;;;3.10;;
73859;SDS011;62197;51.632;13.700;2023-05-29T02:15:30;4.80;;;2.87;;
73859;SDS011;62197;51.632;13.700;2023-05-29T02:17:55;5.43;;;3.13;;
73859;SDS011;62197;51.632;13.700;2023-05-29T02:20:20;6.32;;;2.78;;
73859;SDS011;62197;51.632;13.700;2023-05-29T02:22:46;6.78;;;2.90;;
73859;SDS011;62197;51.632;13.700;2023-05-29T02:25:11;7.70;;;2.70;;
73859;SDS011;62197;51.632;13.700;2023-05-29T02:27:37;5.47;;;3.40;;
73859;SDS011;62197;51.632;13.700;2023-05-29T02:30:02;5.15;;;3.08;;
73859;SDS011;62197;51.632;13.700;2023-05-29T02:32:28;6.50;;;3.10;;
73859;SDS011;62197;51.632;13.700;2023-05-29T02:34:54;5.43;;;3.47;;
73859;SDS011;62197;51.632;13.700;2023-05-29T02:39:45;4.43;;;3.17;;
73859;SDS011;62197;51.632;13.700;2023-05-29T02:42:10;6.50;;;2.63;;
73859;SDS011;62197;51.632;13.700;2023-05-29T02:47:00;4.57;;;2.70;;
73859;SDS011;62197;51.632;13.700;2023-05-29T02:49:26;4.95;;;3.03;;
73859;SDS011;62197;51.632;13.700;2023-05-29T02:54:21;6.78;;;3.30;;
73859;SDS011;62197;51.632;13.700;2023-05-29T02:59:12;4.53;;;2.43;;
73859;SDS011;62197;51.632;13.700;2023-05-29T03:04:02;5.00;;;2.57;;
73859;SDS011;62197;51.632;13.700;2023-05-29T03:06:27;5.38;;;2.75;;
73859;SDS011;62197;51.632;13.700;2023-05-29T03:11:18;5.77;;;2.67;;
73859;SDS011;62197;51.632;13.700;2023-05-29T03:13:43;6.03;;;3.10;;
73859;SDS011;62197;51.632;13.700;2023-05-29T03:16:11;5.93;;;3.42;;
73859;SDS011;62197;51.632;13.700;2023-05-29T03:21:02;6.30;;;3.30;;
73859;SDS011;62197;51.632;13.700;2023-05-29T03:23:27;8.38;;;3.25;;
73859;SDS011;62197;51.632;13.700;2023-05-29T03:28:17;7.87;;;3.40;;
73859;SDS011;62197;51.632;13.700;2023-05-29T03:33:08;5.70;;;2.50;;
73859;SDS011;62197;51.632;13.700;2023-05-29T03:37:58;5.40;;;3.43;;
73859;SDS011;62197;51.632;13.700;2023-05-29T03:42:49;7.27;;;2.97;;
73859;SDS011;62197;51.632;13.700;2023-05-29T03:47:40;4.22;;;2.90;;
73859;SDS011;62197;51.632;13.700;2023-05-29T03:52:31;7.95;;;3.22;;
73859;SDS011;62197;51.632;13.700;2023-05-29T03:57:21;5.73;;;3.13;;
73859;SDS011;62197;51.632;13.700;2023-05-29T04:02:12;6.10;;;3.13;;
73859;SDS011;62197;51.632;13.700;2023-05-29T04:07:04;13.20;;;3.45;;
73859;SDS011;62197;51.632;13.700;2023-05-29T04:11:55;5.10;;;2.63;;
73859;SDS011;62197;51.632;13.700;2023-05-29T04:16:45;7.10;;;3.33;;
73859;SDS011;62197;51.632;13.700;2023-05-29T04:21:36;7.03;;;3.40;;
73859;SDS011;62197;51.632;13.700;2023-05-29T04:26:27;6.18;;;3.25;;
73859;SDS011;62197;51.632;13.700;2023-05-29T04:31:22;5.65;;;3.30;;
73859;SDS011;62197;51.632;13.700;2023-05-29T04:33:54;4.80;;;3.00;;
73859;SDS011;62197;51.632;13.700;2023-05-29T04:36:23;8.27;;;3.47;;
73859;SDS011;62197;51.632;13.700;2023-05-29T04:38:50;5.55;;;2.90;;
73859;SDS011;62197;51.632;13.700;2023-05-29T04:41:16;9.18;;;3.38;;
73859;SDS011;62197;51.632;13.700;2023-05-29T04:46:07;4.97;;;2.90;;
73859;SDS011;62197;51.632;13.700;2023-05-29T04:48:37;6.72;;;3.38;;
73859;SDS011;62197;51.632;13.700;2023-05-29T04:51:05;9.15;;;3.40;;
73859;SDS011;62197;51.632;13.700;2023-05-29T04:53:31;9.45;;;3.33;;
73859;SDS011;62197;51.632;13.700;2023-05-29T04:55:56;7.88;;;3.30;;
73859;SDS011;62197;51.632;13.700;2023-05-29T05:00:49;7.20;;;3.47;;
73859;SDS011;62197;51.632;13.700;2023-05-29T05:03:14;7.82;;;2.95;;
73859;SDS011;62197;51.632;13.700;2023-05-29T05:05:41;5.28;;;3.22;;
73859;SDS011;62197;51.632;13.700;2023-05-29T05:08:08;7.68;;;2.97;;
73859;SDS011;62197;51.632;13.700;2023-05-29T05:10:34;6.55;;;3.22;;
73859;SDS011;62197;51.632;13.700;2023-05-29T05:13:00;8.27;;;3.10;;
73859;SDS011;62197;51.632;13.700;2023-05-29T05:15:27;6.50;;;3.13;;
73859;SDS011;62197;51.632;13.700;2023-05-29T05:17:53;6.10;;;3.10;;
73859;SDS011;62197;51.632;13.700;2023-05-29T05:20:18;6.75;;;3.42;;
73859;SDS011;62197;51.632;13.700;2023-05-29T05:25:09;5.53;;;3.00;;
73859;SDS011;62197;51.632;13.700;2023-05-29T05:27:35;6.78;;;3.10;;
73859;SDS011;62197;51.632;13.700;2023-05-29T05:30:00;6.72;;;2.45;;
73859;SDS011;62197;51.632;13.700;2023-05-29T05:34:51;7.25;;;3.10;;
73859;SDS011;62197;51.632;13.700;2023-05-29T05:37:16;7.20;;;3.33;;
73859;SDS011;62197;51.632;13.700;2023-05-29T05:42:08;4.88;;;3.30;;
73859;SDS011;62197;51.632;13.700;2023-05-29T05:44:33;7.47;;;3.38;;
73859;SDS011;62197;51.632;13.700;2023-05-29T05:46:59;7.65;;;2.95;;
73859;SDS011;62197;51.632;13.700;2023-05-29T05:49:24;7.03;;;3.05;;
73859;SDS011;62197;51.632;13.700;2023-05-29T05:51:49;6.50;;;3.13;;
73859;SDS011;62197;51.632;13.700;2023-05-29T05:54:15;7.97;;;2.63;;
73859;SDS011;62197;51.632;13.700;2023-05-29T05:56:40;6.88;;;2.58;;
73859;SDS011;62197;51.632;13.700;2023-05-29T05:59:06;7.88;;;3.30;;
73859;SDS011;62197;51.632;13.700;2023-05-29T06:01:31;6.90;;;2.70;;
73859;SDS011;62197;51.632;13.700;2023-05-29T06:03:58;7.63;;;2.85;;
73859;SDS011;62197;51.632;13.700;2023-05-29T06:06:23;5.78;;;3.03;;
73859;SDS011;62197;51.632;13.700;2023-05-29T06:08:49;6.82;;;3.08;;
73859;SDS011;62197;51.632;13.700;2023-05-29T06:11:14;5.90;;;2.67;;
73859;SDS011;62197;51.632;13.700;2023-05-29T06:13:39;7.38;;;2.88;;
73859;SDS011;62197;51.632;13.700;2023-05-29T06:16:05;9.02;;;2.83;;
73859;SDS011;62197;51.632;13.700;2023-05-29T06:18:30;7.57;;;3.15;;
73859;SDS011;62197;51.632;13.700;2023-05-29T06:20:56;9.07;;;3.97;;
73859;SDS011;62197;51.632;13.700;2023-05-29T06:23:21;6.75;;;2.88;;
73859;SDS011;62197;51.632;13.700;2023-05-29T06:25:46;4.63;;;2.63;;
73859;SDS011;62197;51.632;13.700;2023-05-29T06:28:12;6.93;;;3.08;;
73859;SDS011;62197;51.632;13.700;2023-05-29T06:30:38;6.57;;;2.80;;
73859;SDS011;62197;51.632;13.700;2023-05-29T06:33:04;5.22;;;3.60;;
73859;SDS011;62197;51.632;13.700;2023-05-29T06:35:30;6.93;;;2.85;;
73859;SDS011;62197;51.632;13.700;2023-05-29T06:37:55;6.38;;;3.03;;
73859;SDS011;62197;51.632;13.700;2023-05-29T06:40:21;6.78;;;2.67;;
73859;SDS011;62197;51.632;13.700;2023-05-29T06:42:46;8.35;;;3.42;;
73859;SDS011;62197;51.632;13.700;2023-05-29T06:45:11;5.85;;;2.95;;
73859;SDS011;62197;51.632;13.700;2023-05-29T06:47:38;5.57;;;2.63;;
73859;SDS011;62197;51.632;13.700;2023-05-29T06:50:04;6.82;;;2.70;;
73859;SDS011;62197;51.632;13.700;2023-05-29T06:52:30;5.15;;;2.60;;
73859;SDS011;62197;51.632;13.700;2023-05-29T06:54:55;6.35;;;2.58;;
73859;SDS011;62197;51.632;13.700;2023-05-29T06:57:21;7.10;;;2.90;;
73859;SDS011;62197;51.632;13.700;2023-05-29T06:59:47;7.85;;;2.55;;
73859;SDS011;62197;51.632;13.700;2023-05-29T07:02:12;5.68;;;2.55;;
73859;SDS011;62197;51.632;13.700;2023-05-29T07:04:37;8.35;;;2.97;;
73859;SDS011;62197;51.632;13.700;2023-05-29T07:07:03;5.93;;;3.22;;
73859;SDS011;62197;51.632;13.700;2023-05-29T07:09:28;5.22;;;2.47;;
73859;SDS011;62197;51.632;13.700;2023-05-29T07:11:53;6.35;;;2.63;;
73859;SDS011;62197;51.632;13.700;2023-05-29T07:14:19;6.82;;;2.53;;
73859;SDS011;62197;51.632;13.700;2023-05-29T07:16:44;6.07;;;2.35;;
73859;SDS011;62197;51.632;13.700;2023-05-29T07:19:09;6.68;;;2.90;;
73859;SDS011;62197;51.632;13.700;2023-05-29T07:21:38;7.43;;;2.70;;
73859;SDS011;62197;51.632;13.700;2023-05-29T07:24:03;5.32;;;2.55;;
73859;SDS011;62197;51.632;13.700;2023-05-29T07:26:29;5.43;;;2.28;;
73859;SDS011;62197;51.632;13.700;2023-05-29T07:28:55;6.95;;;2.72;;
73859;SDS011;62197;51.632;13.700;2023-05-29T07:31:21;8.50;;;3.08;;
73859;SDS011;62197;51.632;13.700;2023-05-29T07:33:46;6.93;;;2.22;;
73859;SDS011;62197;51.632;13.700;2023-05-29T07:36:12;9.10;;;2.63;;
73859;SDS011;62197;51.632;13.700;2023-05-29T07:38:37;6.60;;;2.25;;
73859;SDS011;62197;51.632;13.700;2023-05-29T07:41:02;6.00;;;2.63;;
73859;SDS011;62197;51.632;13.700;2023-05-29T07:43:28;7.63;;;2.50;;
73859;SDS011;62197;51.632;13.700;2023-05-29T07:45:53;6.00;;;2.60;;
73859;SDS011;62197;51.632;13.700;2023-05-29T07:48:18;5.43;;;2.13;;
73859;SDS011;62197;51.632;13.700;2023-05-29T07:50:44;6.13;;;2.13;;
73859;SDS011;62197;51.632;13.700;2023-05-29T07:53:09;6.45;;;2.83;;
73859;SDS011;62197;51.632;13.700;2023-05-29T07:55:35;8.45;;;2.88;;
73859;SDS011;62197;51.632;13.700;2023-05-29T07:58:01;4.63;;;1.90;;
73859;SDS011;62197;51.632;13.700;2023-05-29T08:00:26;6.00;;;2.38;;
73859;SDS011;62197;51.632;13.700;2023-05-29T08:02:53;8.95;;;2.95;;
73859;SDS011;62197;51.632;13.700;2023-05-29T08:05:18;7.18;;;2.10;;
73859;SDS011;62197;51.632;13.700;2023-05-29T08:07:44;9.15;;;3.50;;
73859;SDS011;62197;51.632;13.700;2023-05-29T08:10:09;4.50;;;2.00;;
73859;SDS011;62197;51.632;13.700;2023-05-29T08:12:35;5.43;;;2.30;;
73859;SDS011;62197;51.632;13.700;2023-05-29T08:15:00;7.32;;;2.30;;
73859;SDS011;62197;51.632;13.700;2023-05-29T08:17:26;5.93;;;2.22;;
73859;SDS011;62197;51.632;13.700;2023-05-29T08:19:53;3.38;;;1.63;;
73859;SDS011;62197;51.632;13.700;2023-05-29T08:22:18;6.00;;;2.78;;
73859;SDS011;62197;51.632;13.700;2023-05-29T08:24:43;4.85;;;2.30;;
73859;SDS011;62197;51.632;13.700;2023-05-29T08:27:09;8.07;;;2.35;;
73859;SDS011;62197;51.632;13.700;2023-05-29T08:29:34;7.10;;;2.50;;
73859;SDS011;62197;51.632;13.700;2023-05-29T08:32:00;5.80;;;2.33;;
73859;SDS011;62197;51.632;13.700;2023-05-29T08:34:26;7.53;;;2.33;;
73859;SDS011;62197;51.632;13.700;2023-05-29T08:36:51;4.60;;;2.65;;
73859;SDS011;62197;51.632;13.700;2023-05-29T08:39:19;5.53;;;2.20;;
73859;SDS011;62197;51.632;13.700;2023-05-29T08:41:55;6.03;;;2.15;;
73859;SDS011;62197;51.632;13.700;2023-05-29T08:44:29;6.47;;;2.60;;
73859;SDS011;62197;51.632;13.700;2023-05-29T08:46:57;8.10;;;2.47;;
73859;SDS011;62197;51.632;13.700;2023-05-29T08:49:27;4.10;;;1.98;;
73859;SDS011;62197;51.632;13.700;2023-05-29T08:51:57;4.65;;;1.88;;
73859;SDS011;62197;51.632;13.700;2023-05-29T08:54:30;7.10;;;2.20;;
73859;SDS011;62197;51.632;13.700;2023-05-29T08:56:57;5.93;;;2.67;;
73859;SDS011;62197;51.632;13.700;2023-05-29T08:59:23;5.82;;;2.25;;
73859;SDS011;62197;51.632;13.700;2023-05-29T09:01:50;7.35;;;2.53;;
73859;SDS011;62197;51.632;13.700;2023-05-29T09:04:15;7.72;;;2.63;;
73859;SDS011;62197;51.632;13.700;2023-05-29T09:06:41;4.43;;;2.00;;
73859;SDS011;62197;51.632;13.700;2023-05-29T09:09:07;5.43;;;2.40;;
73859;SDS011;62197;51.632;13.700;2023-05-29T09:11:34;8.00;;;2.30;;
73859;SDS011;62197;51.632;13.700;2023-05-29T09:14:00;4.47;;;2.00;;
73859;SDS011;62197;51.632;13.700;2023-05-29T09:16:27;5.55;;;2.30;;
73859;SDS011;62197;51.632;13.700;2023-05-29T09:18:52;4.63;;;1.83;;
73859;SDS011;62197;51.632;13.700;2023-05-29T09:21:28;5.70;;;2.20;;
73859;SDS011;62197;51.632;13.700;2023-05-29T09:24:02;4.15;;;1.98;;
73859;SDS011;62197;51.632;13.700;2023-05-29T09:26:28;3.92;;;2.10;;
73859;SDS011;62197;51.632;13.700;2023-05-29T09:28:54;4.90;;;2.20;;
73859;SDS011;62197;51.632;13.700;2023-05-29T09:31:20;5.10;;;2.03;;
73859;SDS011;62197;51.632;13.700;2023-05-29T09:33:47;5.15;;;2.03;;
73859;SDS011;62197;51.632;13.700;2023-05-29T09:36:20;5.53;;;2.13;;
73859;SDS011;62197;51.632;13.700;2023-05-29T09:38:50;5.75;;;1.85;;
73859;SDS011;62197;51.632;13.700;2023-05-29T09:41:22;5.43;;;2.15;;
73859;SDS011;62197;51.632;13.700;2023-05-29T09:43:49;6.13;;;2.08;;
73859;SDS011;62197;51.632;13.700;2023-05-29T09:46:15;6.90;;;2.50;;
73859;SDS011;62197;51.632;13.700;2023-05-29T09:48:44;4.20;;;1.85;;
73859;SDS011;62197;51.632;13.700;2023-05-29T09:51:23;4.97;;;2.00;;
73859;SDS011;62197;51.632;13.700;2023-05-29T09:53:49;4.95;;;1.75;;
73859;SDS011;62197;51.632;13.700;2023-05-29T09:56:16;4.22;;;2.10;;
73859;SDS011;62197;51.632;13.700;2023-05-29T09:58:42;6.13;;;1.88;;
73859;SDS011;62197;51.632;13.700;2023-05-29T10:01:12;10.63;;;2.03;;
73859;SDS011;62197;51.632;13.700;2023-05-29T10:03:43;5.05;;;1.70;;
73859;SDS011;62197;51.632;13.700;2023-05-29T10:06:11;4.20;;;1.70;;
73859;SDS011;62197;51.632;13.700;2023-05-29T10:08:47;3.58;;;1.30;;
73859;SDS011;62197;51.632;13.700;2023-05-29T10:11:18;3.88;;;1.33;;
73859;SDS011;62197;51.632;13.700;2023-05-29T10:13:50;4.30;;;1.98;;
73859;SDS011;62197;51.632;13.700;2023-05-29T10:16:16;3.40;;;1.85;;
73859;SDS011;62197;51.632;13.700;2023-05-29T10:18:47;5.03;;;2.25;;
73859;SDS011;62197;51.632;13.700;2023-05-29T10:21:19;5.82;;;2.13;;
73859;SDS011;62197;51.632;13.700;2023-05-29T10:23:46;4.95;;;2.03;;
73859;SDS011;62197;51.632;13.700;2023-05-29T10:26:20;3.60;;;1.77;;
73859;SDS011;62197;51.632;13.700;2023-05-29T10:31:32;3.60;;;1.50;;
73859;SDS011;62197;51.632;13.700;2023-05-29T10:34:07;6.47;;;1.90;;
73859;SDS011;62197;51.632;13.700;2023-05-29T10:36:44;5.20;;;1.80;;
73859;SDS011;62197;51.632;13.700;2023-05-29T10:39:12;3.85;;;1.75;;
73859;SDS011;62197;51.632;13.700;2023-05-29T10:41:37;5.10;;;1.70;;
73859;SDS011;62197;51.632;13.700;2023-05-29T10:44:37;4.03;;;2.00;;
73859;SDS011;62197;51.632;13.700;2023-05-29T10:49:24;6.95;;;2.45;;
73859;SDS011;62197;51.632;13.700;2023-05-29T10:51:50;4.65;;;1.80;;
73859;SDS011;62197;51.632;13.700;2023-05-29T10:54:16;3.50;;;1.63;;
73859;SDS011;62197;51.632;13.700;2023-05-29T10:56:44;5.05;;;2.05;;
73859;SDS011;62197;51.632;13.700;2023-05-29T10:59:17;6.70;;;1.77;;
73859;SDS011;62197;51.632;13.700;2023-05-29T11:01:42;3.38;;;1.85;;
73859;SDS011;62197;51.632;13.700;2023-05-29T11:06:38;6.68;;;1.90;;
73859;SDS011;62197;51.632;13.700;2023-05-29T11:09:04;3.58;;;1.70;;
73859;SDS011;62197;51.632;13.700;2023-05-29T11:11:33;3.20;;;1.90;;
73859;SDS011;62197;51.632;13.700;2023-05-29T11:14:02;4.30;;;2.08;;
73859;SDS011;62197;51.632;13.700;2023-05-29T11:18:57;5.15;;;2.20;;
73859;SDS011;62197;51.632;13.700;2023-05-29T11:24:08;7.63;;;2.30;;
73859;SDS011;62197;51.632;13.700;2023-05-29T11:26:45;5.38;;;2.20;;
73859;SDS011;62197;51.632;13.700;2023-05-29T11:29:12;3.35;;;2.20;;
73859;SDS011;62197;51.632;13.700;2023-05-29T11:31:38;4.25;;;2.08;;
73859;SDS011;62197;51.632;13.700;2023-05-29T11:34:05;3.83;;;1.98;;
73859;SDS011;62197;51.632;13.700;2023-05-29T11:36:39;4.47;;;2.10;;
73859;SDS011;62197;51.632;13.700;2023-05-29T11:39:04;3.75;;;2.00;;
73859;SDS011;62197;51.632;13.700;2023-05-29T11:41:30;3.65;;;2.00;;
73859;SDS011;62197;51.632;13.700;2023-05-29T11:43:56;5.20;;;2.15;;
73859;SDS011;62197;51.632;13.700;2023-05-29T11:46:26;3.80;;;1.85;;
73859;SDS011;62197;51.632;13.700;2023-05-29T11:48:53;9.27;;;2.58;;
73859;SDS011;62197;51.632;13.700;2023-05-29T11:51:18;5.88;;;2.10;;
73859;SDS011;62197;51.632;13.700;2023-05-29T11:53:43;6.57;;;2.50;;
73859;SDS011;62197;51.632;13.700;2023-05-29T11:56:12;3.75;;;1.95;;
73859;SDS011;62197;51.632;13.700;2023-05-29T11:58:38;6.50;;;2.55;;
73859;SDS011;62197;51.632;13.700;2023-05-29T12:01:04;4.57;;;2.05;;
73859;SDS011;62197;51.632;13.700;2023-05-29T12:03:31;4.30;;;1.80;;
73859;SDS011;62197;51.632;13.700;2023-05-29T12:06:02;3.75;;;2.03;;
73859;SDS011;62197;51.632;13.700;2023-05-29T12:08:28;4.43;;;2.35;;
73859;SDS011;62197;51.632;13.700;2023-05-29T12:10:53;3.95;;;1.90;;
73859;SDS011;62197;51.632;13.700;2023-05-29T12:13:19;4.00;;;1.95;;
73859;SDS011;62197;51.632;13.700;2023-05-29T12:15:45;6.43;;;2.38;;
73859;SDS011;62197;51.632;13.700;2023-05-29T12:18:12;3.75;;;1.95;;
73859;SDS011;62197;51.632;13.700;2023-05-29T12:20:38;5.93;;;2.30;;
73859;SDS011;62197;51.632;13.700;2023-05-29T12:23:04;4.15;;;2.17;;
73859;SDS011;62197;51.632;13.700;2023-05-29T12:25:30;3.50;;;2.30;;
73859;SDS011;62197;51.632;13.700;2023-05-29T12:27:56;4.13;;;2.25;;
73859;SDS011;62197;51.632;13.700;2023-05-29T12:30:22;5.80;;;2.35;;
73859;SDS011;62197;51.632;13.700;2023-05-29T12:32:48;5.68;;;2.20;;
73859;SDS011;62197;51.632;13.700;2023-05-29T12:37:59;5.15;;;2.70;;
73859;SDS011;62197;51.632;13.700;2023-05-29T12:40:27;4.95;;;2.25;;
73859;SDS011;62197;51.632;13.700;2023-05-29T12:43:08;5.10;;;2.30;;
73859;SDS011;62197;51.632;13.700;2023-05-29T12:45:36;3.08;;;1.88;;
73859;SDS011;62197;51.632;13.700;2023-05-29T12:48:02;6.72;;;2.00;;
73859;SDS011;62197;51.632;13.700;2023-05-29T12:50:33;4.85;;;2.03;;
73859;SDS011;62197;51.632;13.700;2023-05-29T12:55:35;2.95;;;1.92;;
73859;SDS011;62197;51.632;13.700;2023-05-29T12:58:03;4.07;;;1.98;;
73859;SDS011;62197;51.632;13.700;2023-05-29T13:00:29;6.22;;;2.42;;
73859;SDS011;62197;51.632;13.700;2023-05-29T13:02:55;5.15;;;2.05;;
73859;SDS011;62197;51.632;13.700;2023-05-29T13:05:21;4.55;;;2.03;;
73859;SDS011;62197;51.632;13.700;2023-05-29T13:07:48;3.67;;;2.13;;
73859;SDS011;62197;51.632;13.700;2023-05-29T13:10:14;5.35;;;2.35;;
73859;SDS011;62197;51.632;13.700;2023-05-29T13:12:40;2.92;;;2.47;;
73859;SDS011;62197;51.632;13.700;2023-05-29T13:15:06;3.72;;;2.30;;
73859;SDS011;62197;51.632;13.700;2023-05-29T13:17:32;4.93;;;2.25;;
73859;SDS011;62197;51.632;13.700;2023-05-29T13:19:58;3.00;;;2.03;;
73859;SDS011;62197;51.632;13.700;2023-05-29T13:22:24;6.43;;;2.47;;
73859;SDS011;62197;51.632;13.700;2023-05-29T13:24:55;4.22;;;2.38;;
73859;SDS011;62197;51.632;13.700;2023-05-29T13:27:22;4.25;;;1.90;;
73859;SDS011;62197;51.632;13.700;2023-05-29T13:29:48;4.40;;;2.38;;
73859;SDS011;62197;51.632;13.700;2023-05-29T13:32:14;5.47;;;2.50;;
73859;SDS011;62197;51.632;13.700;2023-05-29T13:34:39;4.35;;;2.10;;
73859;SDS011;62197;51.632;13.700;2023-05-29T13:37:04;4.78;;;2.22;;
73859;SDS011;62197;51.632;13.700;2023-05-29T13:39:30;4.30;;;1.95;;
73859;SDS011;62197;51.632;13.700;2023-05-29T13:41:55;5.82;;;2.33;;
73859;SDS011;62197;51.632;13.700;2023-05-29T13:44:20;6.03;;;2.17;;
73859;SDS011;62197;51.632;13.700;2023-05-29T13:46:46;4.78;;;2.50;;
73859;SDS011;62197;51.632;13.700;2023-05-29T13:49:11;4.50;;;2.40;;
73859;SDS011;62197;51.632;13.700;2023-05-29T13:51:36;4.80;;;2.25;;
73859;SDS011;62197;51.632;13.700;2023-05-29T13:54:02;5.82;;;2.17;;
73859;SDS011;62197;51.632;13.700;2023-05-29T13:56:28;5.72;;;2.97;;
73859;SDS011;62197;51.632;13.700;2023-05-29T13:58:54;4.90;;;2.30;;
73859;SDS011;62197;51.632;13.700;2023-05-29T14:01:19;5.85;;;2.55;;
73859;SDS011;62197;51.632;13.700;2023-05-29T14:03:45;3.85;;;2.45;;
73859;SDS011;62197;51.632;13.700;2023-05-29T14:06:11;5.50;;;2.15;;
73859;SDS011;62197;51.632;13.700;2023-05-29T14:08:37;4.53;;;2.35;;
73859;SDS011;62197;51.632;13.700;2023-05-29T14:11:02;3.83;;;2.30;;
73859;SDS011;62197;51.632;13.700;2023-05-29T14:13:28;5.40;;;2.47;;
73859;SDS011;62197;51.632;13.700;2023-05-29T14:15:53;4.25;;;2.10;;
73859;SDS011;62197;51.632;13.700;2023-05-29T14:18:20;5.03;;;2.33;;
73859;SDS011;62197;51.632;13.700;2023-05-29T14:20:46;4.15;;;2.28;;
73859;SDS011;62197;51.632;13.700;2023-05-29T14:23:13;5.30;;;1.77;;
73859;SDS011;62197;51.632;13.700;2023-05-29T14:25:40;4.57;;;2.05;;
73859;SDS011;62197;51.632;13.700;2023-05-29T14:28:06;4.03;;;2.08;;
73859;SDS011;62197;51.632;13.700;2023-05-29T14:30:31;5.13;;;2.50;;
73859;SDS011;62197;51.632;13.700;2023-05-29T14:32:57;3.88;;;2.20;;
73859;SDS011;62197;51.632;13.700;2023-05-29T14:35:22;5.55;;;2.13;;
73859;SDS011;62197;51.632;13.700;2023-05-29T14:37:47;4.63;;;2.40;;
73859;SDS011;62197;51.632;13.700;2023-05-29T14:40:13;4.22;;;2.17;;
73859;SDS011;62197;51.632;13.700;2023-05-29T14:42:38;5.40;;;2.42;;
73859;SDS011;62197;51.632;13.700;2023-05-29T14:45:04;3.33;;;2.10;;
73859;SDS011;62197;51.632;13.700;2023-05-29T14:47:29;5.05;;;2.50;;
73859;SDS011;62197;51.632;13.700;2023-05-29T14:49:55;4.20;;;1.95;;
73859;SDS011;62197;51.632;13.700;2023-05-29T14:52:20;4.20;;;2.50;;
73859;SDS011;62197;51.632;13.700;2023-05-29T14:54:45;4.68;;;2.30;;
73859;SDS011;62197;51.632;13.700;2023-05-29T14:57:11;5.50;;;2.50;;
73859;SDS011;62197;51.632;13.700;2023-05-29T14:59:36;4.07;;;2.10;;
73859;SDS011;62197;51.632;13.700;2023-05-29T15:02:01;3.72;;;2.10;;
73859;SDS011;62197;51.632;13.700;2023-05-29T15:04:27;6.03;;;2.50;;
73859;SDS011;62197;51.632;13.700;2023-05-29T15:06:52;3.88;;;1.98;;
73859;SDS011;62197;51.632;13.700;2023-05-29T15:09:19;3.67;;;2.40;;
73859;SDS011;62197;51.632;13.700;2023-05-29T15:11:44;4.00;;;1.80;;
73859;SDS011;62197;51.632;13.700;2023-05-29T15:14:09;6.95;;;3.03;;
73859;SDS011;62197;51.632;13.700;2023-05-29T15:16:35;5.55;;;2.20;;
73859;SDS011;62197;51.632;13.700;2023-05-29T15:19:00;3.97;;;2.20;;
73859;SDS011;62197;51.632;13.700;2023-05-29T15:21:26;3.75;;;2.08;;
73859;SDS011;62197;51.632;13.700;2023-05-29T15:23:51;4.63;;;2.00;;
73859;SDS011;62197;51.632;13.700;2023-05-29T15:26:16;5.05;;;2.65;;
73859;SDS011;62197;51.632;13.700;2023-05-29T15:28:42;3.13;;;2.10;;
73859;SDS011;62197;51.632;13.700;2023-05-29T15:31:07;4.85;;;2.33;;
73859;SDS011;62197;51.632;13.700;2023-05-29T15:33:33;5.28;;;2.53;;
73859;SDS011;62197;51.632;13.700;2023-05-29T15:35:58;4.97;;;2.00;;
73859;SDS011;62197;51.632;13.700;2023-05-29T15:38:23;4.82;;;2.03;;
73859;SDS011;62197;51.632;13.700;2023-05-29T15:40:49;5.85;;;2.42;;
73859;SDS011;62197;51.632;13.700;2023-05-29T15:43:15;3.75;;;2.20;;
73859;SDS011;62197;51.632;13.700;2023-05-29T15:45:40;5.07;;;2.15;;
73859;SDS011;62197;51.632;13.700;2023-05-29T15:48:08;4.35;;;2.17;;
73859;SDS011;62197;51.632;13.700;2023-05-29T15:50:33;4.20;;;2.22;;
73859;SDS011;62197;51.632;13.700;2023-05-29T15:52:58;4.13;;;2.13;;
73859;SDS011;62197;51.632;13.700;2023-05-29T15:55:24;5.25;;;2.15;;
73859;SDS011;62197;51.632;13.700;2023-05-29T15:57:49;5.43;;;2.08;;
73859;SDS011;62197;51.632;13.700;2023-05-29T16:00:15;5.10;;;2.47;;
73859;SDS011;62197;51.632;13.700;2023-05-29T16:02:41;3.17;;;1.92;;
73859;SDS011;62197;51.632;13.700;2023-05-29T16:05:07;3.97;;;2.00;;
73859;SDS011;62197;51.632;13.700;2023-05-29T16:07:33;3.95;;;2.00;;
73859;SDS011;62197;51.632;13.700;2023-05-29T16:10:00;4.60;;;2.10;;
73859;SDS011;62197;51.632;13.700;2023-05-29T16:12:25;2.95;;;1.80;;
73859;SDS011;62197;51.632;13.700;2023-05-29T16:14:51;2.83;;;1.80;;
73859;SDS011;62197;51.632;13.700;2023-05-29T16:17:16;6.22;;;2.03;;
73859;SDS011;62197;51.632;13.700;2023-05-29T16:19:42;4.40;;;2.25;;
73859;SDS011;62197;51.632;13.700;2023-05-29T16:22:07;5.47;;;2.05;;
73859;SDS011;62197;51.632;13.700;2023-05-29T16:24:32;2.83;;;2.00;;
73859;SDS011;62197;51.632;13.700;2023-05-29T16:27:01;2.72;;;1.88;;
73859;SDS011;62197;51.632;13.700;2023-05-29T16:29:29;4.93;;;2.00;;
73859;SDS011;62197;51.632;13.700;2023-05-29T16:31:55;3.47;;;1.83;;